Time;durP1;ratioP1;P1;durP2;ratioP2;P2;SDS_P1;SDS_P2;PMS_P1;PMS_P2;Temp;Humidity;BMP_temperature;BMP_pressure;BME280_temperature;BME280_humidity;BME280_pressure;Samples;Min_cycle;Max_cycle;Signal;HPM_P1;HPM_P2
2020/12/17 00:00:55;;;;;;;42.95;12.32;;;4.00;99.90;;;;;;5059765;28;20041;-68
2020/12/17 00:03:21;;;;;;;44.53;11.85;;;4.00;99.90;;;;;;5064809;28;20052;-68
2020/12/17 00:05:48;;;;;;;43.95;12.63;;;4.00;99.90;;;;;;5069155;28;20639;-68
2020/12/17 00:08:18;;;;;;;43.15;12.85;;;4.10;99.90;;;;;;5058516;28;20044;-68
2020/12/17 00:10:46;;;;;;;58.22;12.70;;;4.10;99.90;;;;;;5061117;28;20052;-68
2020/12/17 00:13:13;;;;;;;44.05;13.10;;;4.10;99.90;;;;;;5046723;28;20044;-68
2020/12/17 00:15:39;;;;;;;56.20;12.75;;;4.00;99.90;;;;;;5061893;28;20068;-68
2020/12/17 00:18:06;;;;;;;49.03;12.98;;;4.10;99.90;;;;;;5061858;28;20451;-68
2020/12/17 00:20:33;;;;;;;50.13;12.85;;;4.10;99.90;;;;;;5058575;28;20071;-68
2020/12/17 00:23:03;;;;;;;47.30;12.10;;;4.10;99.90;;;;;;5068747;28;20044;-68
2020/12/17 00:25:30;;;;;;;53.55;13.25;;;4.10;99.90;;;;;;5059751;28;20052;-68
2020/12/17 00:27:56;;;;;;;50.03;14.02;;;4.10;99.90;;;;;;5060890;28;20052;-68
2020/12/17 00:30:23;;;;;;;51.30;14.10;;;4.10;99.90;;;;;;5061810;28;20041;-68
2020/12/17 00:32:49;;;;;;;45.15;12.73;;;4.10;99.90;;;;;;5063681;28;20036;-68
2020/12/17 00:35:17;;;;;;;54.00;12.65;;;4.10;99.90;;;;;;5067304;28;20033;-68
2020/12/17 00:37:43;;;;;;;50.13;11.73;;;4.10;99.90;;;;;;5065374;28;20041;-68
2020/12/17 00:40:12;;;;;;;57.88;12.07;;;4.10;99.90;;;;;;5064534;28;20073;-68
2020/12/17 00:42:40;;;;;;;53.67;12.00;;;4.00;99.90;;;;;;5065140;28;20040;-68
2020/12/17 00:45:07;;;;;;;49.80;10.50;;;4.00;99.90;;;;;;5054915;28;20102;-68
2020/12/17 00:47:34;;;;;;;44.45;10.43;;;4.00;99.90;;;;;;5064345;28;20056;-68
2020/12/17 00:50:00;;;;;;;47.63;9.98;;;4.00;99.90;;;;;;5062863;28;20143;-68
2020/12/17 00:52:27;;;;;;;47.65;12.30;;;3.90;99.90;;;;;;5065193;28;20037;-69
2020/12/17 00:54:53;;;;;;;42.25;10.60;;;3.90;99.90;;;;;;5067845;28;20044;-68
2020/12/17 00:57:25;;;;;;;46.58;11.55;;;3.90;99.90;;;;;;5043130;28;20368;-68
2020/12/17 00:59:52;;;;;;;52.75;12.18;;;3.90;99.90;;;;;;5064678;28;20049;-68
2020/12/17 01:02:20;;;;;;;40.90;11.48;;;3.90;99.90;;;;;;5065751;28;20499;-68
2020/12/17 01:04:47;;;;;;;43.13;10.75;;;3.90;99.90;;;;;;5065946;28;20052;-68
2020/12/17 01:07:14;;;;;;;47.85;11.82;;;3.90;99.90;;;;;;5058260;28;20048;-68
2020/12/17 01:09:41;;;;;;;46.08;11.40;;;3.90;99.90;;;;;;5058132;28;20048;-68
2020/12/17 01:12:08;;;;;;;51.63;11.77;;;3.80;99.90;;;;;;5069404;28;20092;-68
2020/12/17 01:14:35;;;;;;;41.17;11.23;;;3.80;99.90;;;;;;5051214;28;20044;-68
2020/12/17 01:17:05;;;;;;;51.60;11.00;;;3.80;99.90;;;;;;5061851;28;20107;-68
2020/12/17 01:19:32;;;;;;;50.50;11.48;;;3.80;99.90;;;;;;5050670;28;20061;-68
2020/12/17 01:21:59;;;;;;;42.67;10.52;;;3.90;99.90;;;;;;5063665;28;20048;-68
2020/12/17 01:24:26;;;;;;;48.33;11.55;;;3.90;99.90;;;;;;5063375;28;20099;-68
2020/12/17 01:26:53;;;;;;;44.25;11.10;;;3.90;99.90;;;;;;5060272;28;20049;-68
2020/12/17 01:29:21;;;;;;;40.00;10.75;;;3.90;99.90;;;;;;5067506;28;20041;-68
2020/12/17 01:31:48;;;;;;;41.95;10.60;;;3.80;99.90;;;;;;5064916;28;20052;-68
2020/12/17 01:34:15;;;;;;;43.33;10.70;;;3.90;99.90;;;;;;5066720;28;20048;-68
2020/12/17 01:36:41;;;;;;;45.95;10.73;;;3.90;99.90;;;;;;5040234;28;20045;-68
2020/12/17 01:39:08;;;;;;;41.42;11.05;;;3.80;99.90;;;;;;5058210;28;20699;-68
2020/12/17 01:41:34;;;;;;;42.90;10.32;;;3.80;99.90;;;;;;5039720;28;20060;-68
2020/12/17 01:44:02;;;;;;;45.30;9.70;;;3.80;99.90;;;;;;5065403;28;20040;-68
2020/12/17 01:46:30;;;;;;;39.90;11.05;;;3.90;99.90;;;;;;5071053;28;20043;-68
2020/12/17 01:48:59;;;;;;;41.40;10.48;;;3.80;99.90;;;;;;5061711;28;20077;-68
2020/12/17 01:51:26;;;;;;;44.38;10.63;;;3.90;99.90;;;;;;5059776;28;20414;-68
2020/12/17 01:53:54;;;;;;;40.35;10.93;;;3.90;99.90;;;;;;5062923;28;20045;-68
2020/12/17 01:56:25;;;;;;;38.03;9.73;;;3.90;99.90;;;;;;5066978;28;20039;-68
2020/12/17 01:59:04;;;;;;;39.30;10.38;;;3.90;99.90;;;;;;5061146;28;20055;-68
2020/12/17 02:01:31;;;;;;;46.13;10.77;;;3.90;99.90;;;;;;5066436;28;20032;-68
2020/12/17 02:03:59;;;;;;;41.33;10.65;;;3.90;99.90;;;;;;5066825;28;20041;-68
2020/12/17 02:06:26;;;;;;;50.20;10.93;;;3.90;99.90;;;;;;5062692;28;20036;-68
2020/12/17 02:08:53;;;;;;;39.55;11.23;;;3.90;99.90;;;;;;5062497;28;20036;-68
2020/12/17 02:11:21;;;;;;;42.50;9.73;;;3.90;99.90;;;;;;5065629;28;20119;-68
2020/12/17 02:13:47;;;;;;;38.05;10.13;;;3.90;99.90;;;;;;5064116;28;20626;-68
2020/12/17 02:16:15;;;;;;;43.25;11.70;;;3.90;99.90;;;;;;5068200;28;20044;-68
2020/12/17 02:18:42;;;;;;;42.35;9.70;;;3.90;99.90;;;;;;5056447;28;20083;-68
2020/12/17 02:21:09;;;;;;;41.70;10.57;;;3.90;99.90;;;;;;5053448;28;20052;-68
2020/12/17 02:23:37;;;;;;;49.00;10.98;;;3.90;99.90;;;;;;5065157;28;20439;-68
2020/12/17 02:26:05;;;;;;;41.75;11.02;;;4.00;99.90;;;;;;5067433;28;20499;-68
2020/12/17 02:28:33;;;;;;;42.03;10.35;;;3.90;99.90;;;;;;5064128;28;20676;-68
2020/12/17 02:30:59;;;;;;;45.95;10.68;;;3.90;99.90;;;;;;5060279;28;20044;-68
2020/12/17 02:33:26;;;;;;;49.22;10.77;;;3.90;99.90;;;;;;5071470;28;20773;-68
2020/12/17 02:35:52;;;;;;;45.25;11.27;;;3.90;99.90;;;;;;5067416;28;20044;-68
2020/12/17 02:38:19;;;;;;;40.00;10.60;;;3.90;99.90;;;;;;5063048;28;20071;-68
2020/12/17 02:40:46;;;;;;;41.63;10.20;;;3.90;99.90;;;;;;5065862;28;20049;-68
2020/12/17 02:43:13;;;;;;;42.08;10.18;;;3.90;99.90;;;;;;5067194;28;20040;-68
2020/12/17 02:45:49;;;;;;;35.58;10.02;;;3.90;99.90;;;;;;5048601;28;20044;-68
2020/12/17 02:48:18;;;;;;;45.08;10.77;;;3.90;99.90;;;;;;5055201;28;20049;-68
2020/12/17 02:50:45;;;;;;;41.85;10.93;;;3.90;99.90;;;;;;5066606;28;20040;-68
2020/12/17 02:53:12;;;;;;;40.65;11.48;;;3.90;99.90;;;;;;5067825;28;20044;-68
2020/12/17 02:55:39;;;;;;;48.13;9.48;;;3.90;99.90;;;;;;5068998;28;20043;-68
2020/12/17 02:58:06;;;;;;;42.25;9.60;;;4.00;99.90;;;;;;5056882;28;20044;-68
2020/12/17 03:00:33;;;;;;;41.67;9.93;;;4.00;99.90;;;;;;5065752;28;20101;-68
2020/12/17 03:03:00;;;;;;;48.53;10.95;;;4.00;99.90;;;;;;5068372;28;20033;-68
2020/12/17 03:05:26;;;;;;;49.85;11.60;;;4.00;99.90;;;;;;5071093;28;21025;-68
2020/12/17 03:07:53;;;;;;;43.47;11.25;;;4.00;99.90;;;;;;5064790;28;20545;-68
2020/12/17 03:10:21;;;;;;;40.90;10.75;;;4.00;99.90;;;;;;5069254;28;20114;-68
2020/12/17 03:12:47;;;;;;;45.75;10.40;;;4.00;99.90;;;;;;5071111;28;20498;-68
2020/12/17 03:15:14;;;;;;;47.03;11.93;;;4.00;99.90;;;;;;5066649;28;20115;-68
2020/12/17 03:17:41;;;;;;;40.45;9.98;;;4.00;99.90;;;;;;5057258;28;20511;-67
2020/12/17 03:20:10;;;;;;;43.15;10.30;;;4.00;99.90;;;;;;5057920;28;20049;-67
2020/12/17 03:22:37;;;;;;;35.72;9.60;;;4.00;99.90;;;;;;5071209;28;20506;-67
2020/12/17 03:25:09;;;;;;;44.10;9.30;;;4.00;99.90;;;;;;5071346;28;20578;-68
2020/12/17 03:27:35;;;;;;;38.63;9.40;;;4.00;99.90;;;;;;5084060;28;20045;-68
2020/12/17 03:30:06;;;;;;;49.92;10.80;;;4.00;99.90;;;;;;5061712;28;20048;-68
2020/12/17 03:32:33;;;;;;;45.40;9.85;;;4.00;99.90;;;;;;5066404;28;20047;-68
2020/12/17 03:35:00;;;;;;;35.75;9.15;;;4.00;99.90;;;;;;5062602;28;20442;-68
2020/12/17 03:37:27;;;;;;;35.63;8.55;;;4.00;99.90;;;;;;5055043;28;20045;-68
2020/12/17 03:39:53;;;;;;;39.75;10.18;;;4.00;99.90;;;;;;5066793;28;20067;-68
2020/12/17 03:42:20;;;;;;;36.38;9.05;;;4.00;99.90;;;;;;5062150;28;20055;-68
2020/12/17 03:44:47;;;;;;;38.05;9.38;;;4.00;99.90;;;;;;5067174;28;20153;-68
2020/12/17 03:47:14;;;;;;;44.42;11.18;;;4.00;99.90;;;;;;5063759;28;20056;-68
2020/12/17 03:49:41;;;;;;;44.70;11.02;;;4.00;99.90;;;;;;5067236;28;20537;-68
2020/12/17 03:52:07;;;;;;;44.75;12.25;;;4.00;99.90;;;;;;5067730;28;20059;-68
2020/12/17 03:54:34;;;;;;;42.75;10.98;;;4.00;99.90;;;;;;5062670;28;20090;-68
2020/12/17 03:57:00;;;;;;;46.67;11.95;;;4.00;99.90;;;;;;5064412;28;20029;-68
2020/12/17 03:59:27;;;;;;;39.47;10.73;;;4.00;99.90;;;;;;5064686;28;20515;-68
2020/12/17 04:01:53;;;;;;;48.63;11.25;;;4.00;99.90;;;;;;5062258;28;20094;-68
2020/12/17 04:04:20;;;;;;;52.15;11.38;;;4.00;99.90;;;;;;5069612;28;20040;-68
2020/12/17 04:06:46;;;;;;;45.28;10.68;;;4.00;99.90;;;;;;5063294;28;20068;-68
2020/12/17 04:09:13;;;;;;;44.33;10.43;;;4.10;99.90;;;;;;5056891;28;20059;-68
2020/12/17 04:11:40;;;;;;;44.25;11.60;;;4.10;99.90;;;;;;5056876;28;20094;-68
2020/12/17 04:14:06;;;;;;;34.80;9.55;;;4.00;99.90;;;;;;5067411;28;20562;-68
2020/12/17 04:16:33;;;;;;;37.42;10.25;;;4.00;99.90;;;;;;5063877;28;20530;-68
2020/12/17 04:18:59;;;;;;;46.15;11.25;;;4.00;99.90;;;;;;5065134;28;20047;-68
2020/12/17 04:21:26;;;;;;;35.40;9.98;;;4.00;99.90;;;;;;5066710;28;20056;-68
2020/12/17 04:23:52;;;;;;;48.10;11.02;;;4.00;99.90;;;;;;5067353;28;20049;-68
2020/12/17 04:26:19;;;;;;;47.00;11.55;;;4.10;99.90;;;;;;5064113;28;20053;-67
2020/12/17 04:28:45;;;;;;;42.50;10.68;;;4.10;99.90;;;;;;5056805;28;20053;-68
2020/12/17 04:31:13;;;;;;;37.17;10.80;;;4.10;99.90;;;;;;5063767;28;20064;-68
2020/12/17 04:33:39;;;;;;;44.90;11.43;;;4.10;99.90;;;;;;5068155;28;20052;-68
2020/12/17 04:36:06;;;;;;;46.60;11.63;;;4.10;99.90;;;;;;5063070;28;20036;-68
2020/12/17 04:38:32;;;;;;;40.70;9.63;;;4.10;99.90;;;;;;5047611;28;20049;-68
2020/12/17 04:41:04;;;;;;;32.47;9.32;;;4.10;99.90;;;;;;5079945;28;20491;-68
2020/12/17 04:43:30;;;;;;;40.13;10.93;;;4.10;99.90;;;;;;5069801;28;20063;-68
2020/12/17 04:45:58;;;;;;;44.40;12.45;;;4.10;99.90;;;;;;5058606;28;20045;-68
2020/12/17 04:48:26;;;;;;;36.50;9.18;;;4.10;99.90;;;;;;5061046;28;20563;-68
2020/12/17 04:50:54;;;;;;;41.83;10.60;;;4.10;99.90;;;;;;5055461;28;20384;-68
2020/12/17 04:53:22;;;;;;;39.38;10.63;;;4.10;99.90;;;;;;5069319;28;20407;-68
2020/12/17 04:55:51;;;;;;;43.58;10.07;;;4.10;99.90;;;;;;5063764;28;20723;-68
2020/12/17 04:58:20;;;;;;;42.80;9.88;;;4.10;99.90;;;;;;5066279;28;20036;-68
2020/12/17 05:00:52;;;;;;;37.17;8.77;;;4.10;99.90;;;;;;5061827;28;20058;-68
2020/12/17 05:03:21;;;;;;;36.67;10.43;;;4.10;99.90;;;;;;5065624;28;20052;-68
2020/12/17 05:05:51;;;;;;;38.70;11.18;;;4.10;99.90;;;;;;5057846;28;20041;-68
2020/12/17 05:08:22;;;;;;;39.72;10.18;;;4.10;99.90;;;;;;5059910;28;20055;-68
2020/12/17 05:10:49;;;;;;;42.65;10.35;;;4.10;99.90;;;;;;5058014;28;20049;-68
2020/12/17 05:13:17;;;;;;;45.53;12.63;;;4.10;99.90;;;;;;5067652;28;20032;-68
2020/12/17 05:15:44;;;;;;;39.65;11.82;;;4.10;99.90;;;;;;5065911;28;20036;-68
2020/12/17 05:18:11;;;;;;;40.15;11.23;;;4.10;99.90;;;;;;5065556;28;20059;-68
2020/12/17 05:20:40;;;;;;;35.20;9.85;;;4.20;99.90;;;;;;5073033;28;20053;-68
2020/12/17 05:23:07;;;;;;;38.45;10.43;;;4.20;99.90;;;;;;5065047;28;20058;-68
2020/12/17 05:25:34;;;;;;;42.60;9.80;;;4.10;99.90;;;;;;5063298;28;20044;-68
2020/12/17 05:28:04;;;;;;;36.97;9.15;;;4.20;99.90;;;;;;5053585;28;20048;-68
2020/12/17 05:30:36;;;;;;;41.15;9.70;;;4.20;99.90;;;;;;5059752;28;20041;-68
2020/12/17 05:33:03;;;;;;;33.42;9.02;;;4.20;99.90;;;;;;5065707;28;20044;-68
2020/12/17 05:35:38;;;;;;;31.40;10.38;;;4.20;99.90;;;;;;5065435;28;20045;-68
2020/12/17 05:38:06;;;;;;;41.65;10.45;;;4.10;99.90;;;;;;5071496;28;20043;-68
2020/12/17 05:40:43;;;;;;;39.50;10.93;;;4.10;99.90;;;;;;5068404;28;20094;-68
2020/12/17 05:43:10;;;;;;;55.97;18.60;;;4.20;99.90;;;;;;5062402;28;20055;-68
2020/12/17 05:45:37;;;;;;;52.33;17.05;;;4.20;99.90;;;;;;5069755;28;20044;-67
2020/12/17 05:48:21;;;;;;;42.30;12.60;;;4.20;99.90;;;;;;5059538;28;20119;-68
2020/12/17 05:50:51;;;;;;;40.70;10.65;;;4.20;99.90;;;;;;5062722;28;20063;-68
2020/12/17 05:53:18;;;;;;;36.58;10.05;;;4.20;99.90;;;;;;5065747;28;20053;-68
2020/12/17 05:55:44;;;;;;;39.60;10.63;;;4.20;99.90;;;;;;5068864;28;20091;-68
2020/12/17 05:58:12;;;;;;;34.90;10.38;;;4.20;99.90;;;;;;5070442;28;20037;-68
2020/12/17 06:00:39;;;;;;;45.22;10.82;;;4.20;99.90;;;;;;5070142;28;20040;-68
2020/12/17 06:03:12;;;;;;;50.75;12.10;;;4.10;99.90;;;;;;5065080;28;20098;-68
2020/12/17 06:05:43;;;;;;;45.33;14.35;;;4.20;99.90;;;;;;5071934;28;20383;-68
2020/12/17 06:08:16;;;;;;;42.58;12.88;;;4.20;99.90;;;;;;5070542;28;20055;-68
2020/12/17 06:10:48;;;;;;;47.97;13.20;;;4.20;99.90;;;;;;5069613;28;20129;-68
2020/12/17 06:13:16;;;;;;;42.25;11.95;;;4.20;99.90;;;;;;5062265;28;20056;-68
2020/12/17 06:15:54;;;;;;;39.40;11.32;;;4.20;99.90;;;;;;5063382;28;20490;-68
2020/12/17 06:18:22;;;;;;;38.70;10.45;;;4.20;99.90;;;;;;5060700;28;20060;-68
2020/12/17 06:20:49;;;;;;;37.58;11.45;;;4.20;99.90;;;;;;5057739;28;20040;-68
2020/12/17 06:23:16;;;;;;;42.38;11.88;;;4.10;99.90;;;;;;5063587;28;20123;-68
2020/12/17 06:25:45;;;;;;;37.75;11.13;;;4.20;99.90;;;;;;5063699;28;20471;-67
2020/12/17 06:28:38;;;;;;;44.08;12.45;;;4.20;99.90;;;;;;5066188;28;20040;-67
2020/12/17 06:31:05;;;;;;;56.55;14.52;;;4.10;99.90;;;;;;5063015;28;20044;-67
2020/12/17 06:33:35;;;;;;;54.03;11.57;;;4.10;99.90;;;;;;5060562;28;20048;-68
2020/12/17 06:36:09;;;;;;;38.63;11.27;;;4.20;99.90;;;;;;5068443;28;20056;-67
2020/12/17 06:38:38;;;;;;;42.15;10.85;;;4.20;99.90;;;;;;5059802;28;20399;-68
2020/12/17 06:41:16;;;;;;;49.53;12.30;;;4.10;99.90;;;;;;5068158;28;20040;-68
2020/12/17 06:43:43;;;;;;;51.35;14.85;;;4.10;99.90;;;;;;5067436;28;20045;-68
2020/12/17 06:46:38;;;;;;;55.95;16.58;;;4.10;99.90;;;;;;5065840;28;20040;-68
2020/12/17 06:49:08;;;;;;;40.72;12.93;;;4.10;99.90;;;;;;5060841;28;20052;-68
2020/12/17 06:51:39;;;;;;;52.30;12.57;;;4.20;99.90;;;;;;5068168;28;20101;-68
2020/12/17 06:54:09;;;;;;;42.63;11.27;;;4.20;99.90;;;;;;5066445;28;20479;-68
2020/12/17 06:56:40;;;;;;;56.78;16.40;;;4.20;99.90;;;;;;5059097;28;20064;-68
2020/12/17 06:59:20;;;;;;;58.95;17.92;;;4.10;99.90;;;;;;5068886;28;20051;-68
2020/12/17 07:01:48;;;;;;;47.67;13.85;;;4.10;99.90;;;;;;5056508;28;20122;-68
2020/12/17 07:04:40;;;;;;;46.38;14.07;;;4.00;99.90;;;;;;5066209;28;20086;-67
2020/12/17 07:07:13;;;;;;;42.45;11.25;;;4.00;99.90;;;;;;5069031;28;20035;-66
2020/12/17 07:09:40;;;;;;;52.55;13.52;;;4.10;99.90;;;;;;5068815;28;20429;-66
2020/12/17 07:12:10;;;;;;;53.80;13.05;;;4.20;99.90;;;;;;5066498;28;20566;-67
2020/12/17 07:14:36;;;;;;;50.58;12.98;;;4.20;99.90;;;;;;5057608;28;20067;-66
2020/12/17 07:17:08;;;;;;;57.28;14.73;;;4.30;99.90;;;;;;5066699;28;20055;-66
2020/12/17 07:19:44;;;;;;;53.47;14.07;;;4.20;99.90;;;;;;5042463;28;806529;-66
2020/12/17 07:22:14;;;;;;;58.55;13.48;;;4.30;99.90;;;;;;5060541;28;20055;-66
2020/12/17 07:24:49;;;;;;;57.60;13.38;;;4.30;99.90;;;;;;5068042;28;20043;-66
2020/12/17 07:27:25;;;;;;;59.40;13.90;;;4.30;99.90;;;;;;5059014;28;20107;-66
2020/12/17 07:29:58;;;;;;;50.65;11.90;;;4.30;99.90;;;;;;5063211;28;20530;-66
2020/12/17 07:32:27;;;;;;;57.92;14.52;;;4.30;99.90;;;;;;5071467;28;20094;-66
2020/12/17 07:34:56;;;;;;;55.33;13.65;;;4.40;99.90;;;;;;5062142;28;20048;-66
2020/12/17 07:37:52;;;;;;;51.42;12.65;;;4.40;99.90;;;;;;5062734;28;20113;-66
2020/12/17 07:40:43;;;;;;;41.80;11.75;;;4.40;99.90;;;;;;5062379;28;20040;-66
2020/12/17 07:43:15;;;;;;;44.13;11.98;;;4.40;99.90;;;;;;5069455;28;20063;-66
2020/12/17 07:45:49;;;;;;;55.17;12.00;;;4.40;99.90;;;;;;5067849;28;20045;-66
2020/12/17 07:48:50;;;;;;;48.58;11.73;;;4.40;99.90;;;;;;5068515;28;20055;-66
2020/12/17 07:51:27;;;;;;;50.58;12.13;;;4.40;99.90;;;;;;5062027;28;20063;-66
2020/12/17 07:53:55;;;;;;;46.55;11.50;;;4.40;99.90;;;;;;5066730;28;20083;-66
2020/12/17 07:56:22;;;;;;;50.78;12.88;;;4.40;99.90;;;;;;5065946;28;20045;-66
2020/12/17 07:58:51;;;;;;;54.25;12.45;;;4.40;99.90;;;;;;5068748;28;20082;-66
2020/12/17 08:01:19;;;;;;;51.15;12.05;;;4.50;99.90;;;;;;5066519;28;20456;-66
2020/12/17 08:03:53;;;;;;;48.38;12.90;;;4.40;99.90;;;;;;5062258;28;20139;-67
2020/12/17 08:06:22;;;;;;;59.55;14.80;;;4.40;99.90;;;;;;5056512;28;20048;-66
2020/12/17 08:08:58;;;;;;;51.22;13.20;;;4.40;99.90;;;;;;5066531;28;20144;-66
2020/12/17 08:11:37;;;;;;;56.38;12.68;;;4.50;99.90;;;;;;5064147;28;20060;-66
2020/12/17 08:14:08;;;;;;;44.05;12.40;;;4.50;99.90;;;;;;5057333;28;20040;-66
2020/12/17 08:16:35;;;;;;;39.15;11.70;;;4.50;99.90;;;;;;5066059;28;20049;-66
2020/12/17 08:19:03;;;;;;;43.55;11.57;;;4.40;99.90;;;;;;5066201;28;20048;-66
2020/12/17 08:21:30;;;;;;;61.20;12.70;;;4.40;99.90;;;;;;5064336;28;20037;-66
2020/12/17 08:23:56;;;;;;;51.45;11.40;;;4.30;99.90;;;;;;5064214;28;20114;-66
2020/12/17 08:26:29;;;;;;;56.55;13.15;;;4.40;99.90;;;;;;5039932;28;20492;-67
2020/12/17 08:28:56;;;;;;;59.42;18.08;;;4.40;99.90;;;;;;5058598;28;20037;-66
2020/12/17 08:31:25;;;;;;;51.40;14.48;;;4.40;99.90;;;;;;5064320;28;20051;-66
2020/12/17 08:33:55;;;;;;;52.15;12.23;;;4.30;99.90;;;;;;5060031;28;20055;-66
2020/12/17 08:36:25;;;;;;;45.65;12.68;;;4.40;99.90;;;;;;5059880;28;20056;-66
2020/12/17 08:39:07;;;;;;;45.15;10.88;;;4.40;99.90;;;;;;5050443;28;20052;-66
2020/12/17 08:41:49;;;;;;;43.45;10.75;;;4.40;99.90;;;;;;5051103;28;20052;-66
2020/12/17 08:44:23;;;;;;;53.08;13.02;;;4.40;99.90;;;;;;5059293;28;20052;-66
2020/12/17 08:47:04;;;;;;;52.03;12.18;;;4.40;99.90;;;;;;5056884;28;20044;-66
2020/12/17 08:49:31;;;;;;;46.78;11.40;;;4.50;99.90;;;;;;5062443;28;20166;-66
2020/12/17 08:51:59;;;;;;;46.15;12.35;;;4.50;99.90;;;;;;5067143;28;20055;-67
2020/12/17 08:54:37;;;;;;;56.13;12.30;;;4.50;99.90;;;;;;5064849;28;20048;-66
2020/12/17 08:57:11;;;;;;;51.20;13.93;;;4.60;99.90;;;;;;5059443;28;20054;-67
2020/12/17 08:59:39;;;;;;;62.63;14.45;;;4.60;99.90;;;;;;5058942;28;20057;-66
2020/12/17 09:02:05;;;;;;;59.85;12.77;;;4.60;99.90;;;;;;5054029;28;20422;-66
2020/12/17 09:04:33;;;;;;;62.13;14.70;;;4.60;99.90;;;;;;5057032;28;20056;-67
2020/12/17 09:07:01;;;;;;;53.35;14.35;;;4.70;99.90;;;;;;5052622;28;20045;-66
2020/12/17 09:09:29;;;;;;;60.45;13.02;;;4.70;99.90;;;;;;5060121;28;20056;-66
2020/12/17 09:12:03;;;;;;;44.88;12.30;;;4.60;99.90;;;;;;5044423;28;20503;-66
2020/12/17 09:14:31;;;;;;;48.65;12.82;;;4.70;99.90;;;;;;5033827;28;20599;-67
2020/12/17 09:17:13;;;;;;;57.75;14.38;;;4.70;99.90;;;;;;5062712;28;20053;-67
2020/12/17 09:19:40;;;;;;;52.67;13.38;;;4.70;99.90;;;;;;5062515;28;20056;-67
2020/12/17 09:22:07;;;;;;;54.13;12.77;;;4.70;99.90;;;;;;5058111;28;20044;-65
2020/12/17 09:24:36;;;;;;;53.28;13.07;;;4.70;99.90;;;;;;5060385;28;20055;-66
2020/12/17 09:27:21;;;;;;;49.30;12.77;;;4.60;99.90;;;;;;5061260;28;20085;-67
2020/12/17 09:30:07;;;;;;;63.72;13.43;;;4.60;99.90;;;;;;5056956;28;20082;-66
2020/12/17 09:32:38;;;;;;;58.63;14.95;;;4.50;99.90;;;;;;5061529;28;20126;-66
2020/12/17 09:35:13;;;;;;;56.25;13.18;;;4.50;99.90;;;;;;5063340;28;20526;-66
2020/12/17 09:37:42;;;;;;;60.55;14.65;;;4.60;99.90;;;;;;5055787;28;20055;-66
2020/12/17 09:40:10;;;;;;;56.17;13.45;;;4.70;99.90;;;;;;5059358;28;20044;-67
2020/12/17 09:42:37;;;;;;;48.90;12.05;;;4.70;99.90;;;;;;5060173;28;20055;-67
2020/12/17 09:45:15;;;;;;;54.97;14.25;;;4.70;99.90;;;;;;5066302;28;20508;-67
2020/12/17 09:47:42;;;;;;;55.25;12.50;;;4.70;99.90;;;;;;5062710;28;20554;-67
2020/12/17 09:50:15;;;;;;;61.58;14.35;;;4.80;99.90;;;;;;5049966;28;20045;-68
2020/12/17 09:52:42;;;;;;;52.88;13.30;;;4.80;99.90;;;;;;5064931;28;20048;-67
2020/12/17 09:55:12;;;;;;;52.70;13.45;;;4.80;99.90;;;;;;5041827;28;20048;-67
2020/12/17 09:57:43;;;;;;;55.03;12.23;;;4.80;99.90;;;;;;5049582;28;20547;-66
2020/12/17 10:00:13;;;;;;;50.13;12.43;;;4.80;99.90;;;;;;5058340;28;20032;-67
2020/12/17 10:02:41;;;;;;;51.58;13.90;;;4.80;99.90;;;;;;5062756;28;20055;-67
2020/12/17 10:05:09;;;;;;;58.03;12.73;;;4.80;99.90;;;;;;5055758;28;20053;-67
2020/12/17 10:07:36;;;;;;;54.47;11.70;;;4.80;99.90;;;;;;5054165;28;20070;-67
2020/12/17 10:10:04;;;;;;;59.13;12.20;;;4.80;99.90;;;;;;5067561;28;20056;-67
2020/12/17 10:12:43;;;;;;;64.90;15.40;;;4.70;99.90;;;;;;5057724;28;20040;-67
2020/12/17 10:15:10;;;;;;;51.05;11.02;;;4.70;99.90;;;;;;5063686;28;20056;-68
2020/12/17 10:17:36;;;;;;;56.92;13.02;;;4.70;99.90;;;;;;5066218;28;20049;-67
2020/12/17 10:20:05;;;;;;;52.97;12.00;;;4.60;99.90;;;;;;5069350;28;20515;-66
2020/12/17 10:22:39;;;;;;;112.32;37.67;;;4.70;99.90;;;;;;5066294;28;20043;-67
2020/12/17 10:25:05;;;;;;;56.35;15.88;;;4.70;99.90;;;;;;5064021;28;20044;-66
2020/12/17 10:27:33;;;;;;;57.30;12.93;;;4.70;99.90;;;;;;5066774;28;20549;-66
2020/12/17 10:30:00;;;;;;;56.50;12.07;;;4.70;99.90;;;;;;5057031;28;20058;-66
2020/12/17 10:32:27;;;;;;;50.40;12.27;;;4.70;99.90;;;;;;5062129;28;20450;-67
2020/12/17 10:34:53;;;;;;;49.42;11.65;;;4.70;99.90;;;;;;5063208;28;20044;-66
2020/12/17 10:37:24;;;;;;;52.45;10.57;;;4.70;99.90;;;;;;5060174;28;20125;-67
2020/12/17 10:39:51;;;;;;;52.17;11.23;;;4.70;99.90;;;;;;5058157;28;20442;-67
2020/12/17 10:42:20;;;;;;;58.53;10.88;;;4.70;99.90;;;;;;5067870;28;20407;-66
2020/12/17 10:44:48;;;;;;;48.97;10.75;;;4.70;99.90;;;;;;5066352;28;20044;-67
2020/12/17 10:47:16;;;;;;;49.65;11.80;;;4.80;99.90;;;;;;5084017;28;20056;-67
2020/12/17 10:49:42;;;;;;;44.40;10.85;;;4.80;99.90;;;;;;5057943;28;20086;-67
2020/12/17 10:52:10;;;;;;;53.75;13.90;;;4.90;99.90;;;;;;5062570;28;20040;-67
2020/12/17 10:54:37;;;;;;;54.42;13.55;;;4.90;99.90;;;;;;5065278;28;20095;-67
2020/12/17 10:57:04;;;;;;;58.72;11.50;;;4.90;99.90;;;;;;5068918;28;20105;-67
2020/12/17 10:59:30;;;;;;;50.67;12.00;;;4.90;99.90;;;;;;5066127;28;20052;-67
2020/12/17 11:01:57;;;;;;;46.38;10.52;;;4.80;99.90;;;;;;5047542;28;20259;-67
2020/12/17 11:04:24;;;;;;;43.60;10.45;;;4.80;99.90;;;;;;5056481;28;20045;-66
2020/12/17 11:06:56;;;;;;;59.35;11.68;;;4.80;99.90;;;;;;5058699;28;20048;-67
2020/12/17 11:09:28;;;;;;;55.40;10.68;;;4.90;99.90;;;;;;5064056;28;20075;-67
2020/12/17 11:11:55;;;;;;;52.85;12.32;;;4.90;99.90;;;;;;5044553;28;20131;-67
2020/12/17 11:14:22;;;;;;;61.72;14.07;;;4.90;99.90;;;;;;5061171;28;20055;-67
2020/12/17 11:16:49;;;;;;;52.22;12.95;;;4.90;99.90;;;;;;5066841;28;20051;-67
2020/12/17 11:19:17;;;;;;;52.15;12.93;;;5.00;99.90;;;;;;5044575;28;20118;-67
2020/12/17 11:21:43;;;;;;;61.30;12.45;;;5.00;99.90;;;;;;5056319;28;20057;-67
2020/12/17 11:24:11;;;;;;;56.80;12.60;;;5.10;99.90;;;;;;5067787;28;20576;-67
2020/12/17 11:26:45;;;;;;;62.30;17.80;;;5.10;99.90;;;;;;5081889;28;20082;-68
2020/12/17 11:29:15;;;;;;;59.00;14.98;;;5.10;99.90;;;;;;5066890;28;20833;-67
2020/12/17 11:31:45;;;;;;;63.78;17.45;;;5.00;99.90;;;;;;5059165;28;20794;-68
2020/12/17 11:34:13;;;;;;;72.57;19.80;;;5.00;99.90;;;;;;5066247;28;20047;-67
2020/12/17 11:36:42;;;;;;;65.78;18.17;;;5.10;99.90;;;;;;5064101;28;20762;-67
2020/12/17 11:39:09;;;;;;;55.63;13.10;;;5.10;99.90;;;;;;5068123;28;20063;-67
2020/12/17 11:41:35;;;;;;;55.75;16.17;;;5.10;99.90;;;;;;5065462;28;20048;-68
2020/12/17 11:44:02;;;;;;;73.63;19.77;;;5.10;99.90;;;;;;5066174;28;20044;-67
2020/12/17 11:46:32;;;;;;;48.35;12.70;;;5.10;99.90;;;;;;5068149;28;20090;-68
2020/12/17 11:48:59;;;;;;;64.43;15.68;;;5.10;99.90;;;;;;5069321;28;20041;-68
2020/12/17 11:51:26;;;;;;;75.95;20.95;;;5.10;99.90;;;;;;5064069;28;20147;-68
2020/12/17 11:53:53;;;;;;;70.72;17.77;;;5.10;99.90;;;;;;5049345;28;20541;-68
2020/12/17 11:56:20;;;;;;;51.08;13.90;;;5.10;99.90;;;;;;5057819;28;20040;-68
2020/12/17 11:58:47;;;;;;;57.15;16.40;;;5.10;99.90;;;;;;5066193;28;20041;-68
2020/12/17 12:01:13;;;;;;;66.35;17.23;;;5.20;99.90;;;;;;5056872;28;20048;-68
2020/12/17 12:03:41;;;;;;;65.57;15.73;;;5.20;99.90;;;;;;5059762;28;20044;-67
2020/12/17 12:06:07;;;;;;;57.85;13.85;;;5.20;99.90;;;;;;5060998;28;20053;-67
2020/12/17 12:08:34;;;;;;;63.13;14.00;;;5.20;99.90;;;;;;5063441;28;20117;-65
2020/12/17 12:11:00;;;;;;;68.60;15.32;;;5.20;99.90;;;;;;5065241;28;20478;-68
2020/12/17 12:13:27;;;;;;;58.83;17.20;;;5.30;99.90;;;;;;5065133;28;20049;-70
2020/12/17 12:15:53;;;;;;;79.45;16.58;;;5.30;99.90;;;;;;5064550;28;20483;-69
2020/12/17 12:18:20;;;;;;;61.20;14.77;;;5.30;99.90;;;;;;5042499;28;20045;-68
2020/12/17 12:20:47;;;;;;;55.28;15.23;;;5.30;99.90;;;;;;5063337;28;20110;-68
2020/12/17 12:23:17;;;;;;;57.60;14.18;;;5.30;99.90;;;;;;5059372;28;20051;-69
2020/12/17 12:25:44;;;;;;;51.75;13.13;;;5.30;99.90;;;;;;5053638;28;20056;-69
2020/12/17 12:28:11;;;;;;;69.68;15.25;;;5.30;99.90;;;;;;5062185;28;20036;-69
2020/12/17 12:30:38;;;;;;;57.75;14.23;;;5.30;99.90;;;;;;5057290;28;20071;-69
2020/12/17 12:33:04;;;;;;;51.20;15.05;;;5.20;99.90;;;;;;5061513;28;20396;-69
2020/12/17 12:35:31;;;;;;;60.00;14.23;;;5.20;99.90;;;;;;5060257;28;20048;-68
2020/12/17 12:37:58;;;;;;;61.00;13.85;;;5.20;99.90;;;;;;5065269;28;20093;-69
2020/12/17 12:40:24;;;;;;;61.95;13.27;;;5.10;99.90;;;;;;5056470;28;20053;-69
2020/12/17 12:42:50;;;;;;;53.40;13.80;;;5.20;99.90;;;;;;5061086;28;20028;-69
2020/12/17 12:45:17;;;;;;;64.22;14.65;;;5.10;99.90;;;;;;5046927;28;20480;-68
2020/12/17 12:47:43;;;;;;;55.63;13.70;;;5.20;99.90;;;;;;5048140;28;20050;-69